createdAt,value
2022-10-06T00:01:24.950Z,55.51
2022-10-06T00:04:21.110Z,57.08
2022-10-06T00:07:21.618Z,59.73
2022-10-06T00:10:28.906Z,61.81
2022-10-06T00:13:17.075Z,64.12
2022-10-06T00:16:06.877Z,57.85
2022-10-06T00:19:01.304Z,54.18
2022-10-06T00:21:52.274Z,56.61
2022-10-06T00:24:50.398Z,60.49
2022-10-06T00:27:40.170Z,63.14
2022-10-06T00:30:44.957Z,59.64
2022-10-06T00:33:41.885Z,55.45
2022-10-06T00:36:31.026Z,57.75
2022-10-06T00:39:22.191Z,60.72
2022-10-06T00:42:38.556Z,62.57
2022-10-06T00:45:24.427Z,63.55
2022-10-06T00:48:19.050Z,54.95
2022-10-06T00:51:31.435Z,56.93
2022-10-06T00:54:21.084Z,60.36
2022-10-06T00:57:15.854Z,63.89
2022-10-06T01:00:06.658Z,59.09
2022-10-06T01:03:21.476Z,56.28
2022-10-06T01:06:26.258Z,59.03
2022-10-06T01:09:14.985Z,61.60
2022-10-06T01:12:24.438Z,64.61
2022-10-06T01:15:22.319Z,57.57
2022-10-06T01:18:28.074Z,54.96
2022-10-06T01:21:27.964Z,57.90
2022-10-06T01:24:23.882Z,58.72
2022-10-06T01:27:15.102Z,61.39
2022-10-06T01:30:12.521Z,67.95
2022-10-06T01:33:09.938Z,61.20
2022-10-06T01:36:05.727Z,54.04
2022-10-06T01:39:11.328Z,53.47
2022-10-06T01:42:18.059Z,54.19
2022-10-06T01:45:30.310Z,58.41
2022-10-06T01:48:23.982Z,61.04
2022-10-06T01:51:09.300Z,66.43
2022-10-06T01:54:22.253Z,59.02
2022-10-06T01:57:39.047Z,56.23
2022-10-06T02:00:44.876Z,60.38
2022-10-06T02:04:02.842Z,62.93
2022-10-06T02:07:20.706Z,61.18
2022-10-06T02:10:17.723Z,55.52
2022-10-06T02:13:36.507Z,58.51
2022-10-06T02:16:31.079Z,61.35
2022-10-06T02:19:58.395Z,63.19
2022-10-06T02:23:01.259Z,56.05
2022-10-06T02:25:56.428Z,56.58
2022-10-06T02:28:46.744Z,58.58
2022-10-06T02:31:43.835Z,60.28
2022-10-06T02:34:50.480Z,65.55
2022-10-06T02:37:50.319Z,64.66
2022-10-06T02:40:47.303Z,52.41
2022-10-06T02:43:51.897Z,52.18
2022-10-06T02:46:56.699Z,55.43
2022-10-06T02:50:04.278Z,57.74
2022-10-06T02:53:08.590Z,58.97
2022-10-06T02:56:20.919Z,68.34
2022-10-06T02:59:15.357Z,62.39
2022-10-06T03:02:10.782Z,52.41
2022-10-06T03:05:16.523Z,52.03
2022-10-06T03:08:29.755Z,54.99
2022-10-06T03:11:41.543Z,58.20
2022-10-06T03:14:56.585Z,58.18
2022-10-06T03:17:54.566Z,60.05
2022-10-06T03:20:43.692Z,71.51
2022-10-06T03:23:47.112Z,68.49
2022-10-06T03:27:09.756Z,56.64
2022-10-06T03:30:15.625Z,55.16
2022-10-06T03:33:18.149Z,55.91
2022-10-06T03:36:34.237Z,59.41
2022-10-06T03:39:35.577Z,68.61
2022-10-06T03:42:32.457Z,63.59
2022-10-06T03:45:24.821Z,53.83
2022-10-06T03:48:34.024Z,52.33
2022-10-06T03:52:03.227Z,55.24
2022-10-06T03:55:13.085Z,57.76
2022-10-06T03:57:59.719Z,59.50
2022-10-06T04:01:21.119Z,69.71
2022-10-06T04:04:33.309Z,64.78
2022-10-06T04:07:53.425Z,54.97
2022-10-06T04:11:08.150Z,54.19
2022-10-06T04:13:56.759Z,58.21
2022-10-06T04:17:24.140Z,60.05
2022-10-06T04:20:36.910Z,70.21
2022-10-06T04:23:44.719Z,61.56
2022-10-06T04:26:38.316Z,53.89
2022-10-06T04:29:27.088Z,53.34
2022-10-06T04:32:30.015Z,56.84
2022-10-06T04:35:19.965Z,58.88
2022-10-06T04:38:22.484Z,59.93
2022-10-06T04:41:29.972Z,69.59
2022-10-06T04:44:23.380Z,63.27
2022-10-06T04:47:13.741Z,54.69
2022-10-06T04:50:02.517Z,54.12
2022-10-06T04:53:07.830Z,56.32
2022-10-06T04:56:02.044Z,57.26
2022-10-06T04:59:06.835Z,65.37
2022-10-06T05:02:21.900Z,66.96
2022-10-06T05:05:27.497Z,54.27
2022-10-06T05:08:30.763Z,53.23
2022-10-06T05:11:45.164Z,54.74
2022-10-06T05:14:49.303Z,58.10
2022-10-06T05:17:55.021Z,60.22
2022-10-06T05:21:06.668Z,68.55
2022-10-06T05:24:04.022Z,61.21
2022-10-06T05:26:57.296Z,52.30
2022-10-06T05:29:56.500Z,53.77
2022-10-06T05:32:42.488Z,55.65
2022-10-06T05:35:31.068Z,57.53
2022-10-06T05:38:25.542Z,58.61
2022-10-06T05:41:33.770Z,60.11
2022-10-06T05:44:14.470Z,60.44
2022-10-06T05:46:57.161Z,69.70
2022-10-06T05:49:41.759Z,61.82
2022-10-06T05:52:18.393Z,52.87
2022-10-06T05:55:07.744Z,51.80
2022-10-06T05:57:45.500Z,52.97
2022-10-06T06:00:25.516Z,54.48
2022-10-06T06:03:02.839Z,55.90
2022-10-06T06:05:37.102Z,56.06
2022-10-06T06:08:11.874Z,58.54
2022-10-06T06:10:44.476Z,58.47
2022-10-06T06:13:26.063Z,60.46
2022-10-06T06:16:04.105Z,59.03
2022-10-06T06:18:40.062Z,58.46
2022-10-06T06:21:14.712Z,58.71
2022-10-06T06:23:46.097Z,59.29
2022-10-06T06:26:17.797Z,60.22
2022-10-06T06:28:57.381Z,67.70
2022-10-06T06:31:30.782Z,60.87
2022-10-06T06:34:06.815Z,53.81
2022-10-06T06:36:35.973Z,53.08
2022-10-06T06:39:08.651Z,54.54
2022-10-06T06:41:38.932Z,55.59
2022-10-06T06:44:08.421Z,56.25
2022-10-06T06:49:06.009Z,54.28
2022-10-06T06:51:34.668Z,54.16
2022-10-06T06:54:02.772Z,54.80
2022-10-06T06:56:35.169Z,54.38
2022-10-06T06:59:10.759Z,54.45
2022-10-06T07:01:45.714Z,54.75
2022-10-06T07:04:15.108Z,55.45
2022-10-06T07:06:42.973Z,55.84
2022-10-06T07:09:12.778Z,55.95
2022-10-06T07:11:40.918Z,55.33
2022-10-06T07:14:10.279Z,54.99
2022-10-06T07:16:55.482Z,55.11
2022-10-06T07:19:41.786Z,56.38
2022-10-06T07:22:27.500Z,56.03
2022-10-06T07:25:10.954Z,57.06
2022-10-06T07:27:46.057Z,57.18
2022-10-06T07:30:20.443Z,58.15
2022-10-06T07:32:49.926Z,58.40
2022-10-06T07:35:20.294Z,59.59
2022-10-06T07:37:48.758Z,59.51
2022-10-06T07:40:19.237Z,59.01
2022-10-06T07:42:48.763Z,59.57
2022-10-06T07:45:40.658Z,60.18
2022-10-06T07:48:11.237Z,59.80
2022-10-06T07:50:39.736Z,59.82
2022-10-06T07:53:09.955Z,59.99
2022-10-06T07:55:41.506Z,60.14
2022-10-06T07:58:23.708Z,60.39
2022-10-06T08:00:55.949Z,60.39
2022-10-06T08:03:23.340Z,60.27
2022-10-06T08:05:58.114Z,60.67
2022-10-06T08:08:25.121Z,60.64
2022-10-06T08:10:55.429Z,61.17
2022-10-06T08:13:22.694Z,64.32
2022-10-06T08:15:50.450Z,67.91
2022-10-06T08:18:41.035Z,55.22
2022-10-06T08:21:23.357Z,52.14
2022-10-06T08:23:51.863Z,52.71
2022-10-06T08:26:20.682Z,53.50
2022-10-06T08:28:50.251Z,54.44
2022-10-06T08:31:21.407Z,54.55
2022-10-06T08:33:49.667Z,54.16
2022-10-06T08:36:19.438Z,54.68
2022-10-06T08:38:50.183Z,56.13
2022-10-06T08:41:44.865Z,56.42
2022-10-06T08:44:18.677Z,56.05
2022-10-06T08:46:55.524Z,56.01
2022-10-06T08:49:27.001Z,56.44
2022-10-06T08:52:20.556Z,56.80
2022-10-06T08:55:11.199Z,56.80
2022-10-06T08:58:00.764Z,55.96
2022-10-06T09:00:36.710Z,57.04
2022-10-06T09:03:04.640Z,56.47
2022-10-06T09:05:32.234Z,56.91
2022-10-06T09:08:18.166Z,56.98
2022-10-06T09:11:17.325Z,57.37
2022-10-06T09:13:53.365Z,57.57
2022-10-06T09:16:32.396Z,57.66
2022-10-06T09:19:13.844Z,58.38
2022-10-06T09:21:45.797Z,58.55
2022-10-06T09:24:18.725Z,59.03
2022-10-06T09:26:48.698Z,58.29
2022-10-06T09:29:15.753Z,58.46
2022-10-06T09:31:49.017Z,58.38
2022-10-06T09:34:46.960Z,57.96
2022-10-06T09:37:14.346Z,56.69
2022-10-06T09:39:51.745Z,57.47
2022-10-06T09:42:18.718Z,57.13
2022-10-06T09:44:51.603Z,57.59
2022-10-06T09:47:34.721Z,56.96
2022-10-06T09:50:20.615Z,58.01
2022-10-06T09:53:03.604Z,58.50
2022-10-06T09:55:33.859Z,57.94
2022-10-06T09:58:01.605Z,57.87
2022-10-06T10:00:30.886Z,56.63
2022-10-06T10:03:04.646Z,56.86
2022-10-06T10:05:37.870Z,56.61
2022-10-06T10:08:13.696Z,56.61
2022-10-06T10:10:41.315Z,56.47
2022-10-06T10:13:19.184Z,56.92
2022-10-06T10:15:56.595Z,57.03
2022-10-06T10:18:26.870Z,57.01
2022-10-06T10:21:06.210Z,56.55
2022-10-06T10:23:39.365Z,56.15
2022-10-06T10:26:18.031Z,56.63
2022-10-06T10:29:03.634Z,56.83
2022-10-06T10:31:39.601Z,55.97
2022-10-06T10:34:24.349Z,55.73
2022-10-06T10:37:00.719Z,55.88
2022-10-06T10:39:42.444Z,55.01
2022-10-06T10:42:20.964Z,54.84
2022-10-06T10:44:55.453Z,55.85
2022-10-06T10:47:27.871Z,56.59
2022-10-06T10:50:04.654Z,56.81
2022-10-06T10:52:38.524Z,54.91
2022-10-06T10:55:28.887Z,55.21
2022-10-06T10:58:04.459Z,54.38
2022-10-06T11:00:37.821Z,54.77
2022-10-06T11:03:04.938Z,53.11
2022-10-06T11:05:56.247Z,54.79
2022-10-06T11:08:35.253Z,55.43
2022-10-06T11:11:09.281Z,54.74
2022-10-06T11:13:44.545Z,53.95
2022-10-06T11:16:39.250Z,54.19
2022-10-06T11:19:20.580Z,54.43
2022-10-06T11:22:12.771Z,52.98
2022-10-06T11:28:09.812Z,53.12
2022-10-06T11:30:54.754Z,54.11
2022-10-06T11:33:29.884Z,53.65
2022-10-06T11:35:56.758Z,52.99
2022-10-06T11:38:42.778Z,51.24
2022-10-06T11:41:28.322Z,49.24
2022-10-06T11:44:00.649Z,51.49
2022-10-06T11:46:37.597Z,50.87
2022-10-06T11:49:28.875Z,49.65
2022-10-06T11:52:15.811Z,50.55
2022-10-06T11:55:13.617Z,48.24
2022-10-06T11:58:41.319Z,47.31
2022-10-06T12:00:56.527Z,46.16
2022-10-06T12:03:29.654Z,47.21
2022-10-06T12:05:57.260Z,46.65
2022-10-06T12:08:39.075Z,47.25
2022-10-06T12:11:42.374Z,46.77
2022-10-06T12:17:19.651Z,49.20
2022-10-06T12:20:24.994Z,50.09
2022-10-06T12:23:04.971Z,50.66
2022-10-06T12:25:50.739Z,51.97
2022-10-06T12:28:39.154Z,51.84
2022-10-06T12:31:17.854Z,51.51
2022-10-06T12:33:46.133Z,51.71
2022-10-06T12:36:22.551Z,51.44
2022-10-06T12:39:02.272Z,52.19
2022-10-06T12:42:07.324Z,51.96
2022-10-06T12:44:40.029Z,51.88
2022-10-06T12:47:28.623Z,51.63
2022-10-06T12:50:03.265Z,51.54
2022-10-06T12:52:39.291Z,51.95
2022-10-06T12:55:37.960Z,51.28
2022-10-06T12:58:04.741Z,50.89
2022-10-06T13:00:39.659Z,50.87
2022-10-06T13:03:09.150Z,50.79
2022-10-06T13:05:36.830Z,49.85
2022-10-06T13:08:06.688Z,50.78
2022-10-06T13:10:33.823Z,51.31
2022-10-06T13:13:01.490Z,51.44
2022-10-06T13:15:34.751Z,50.65
2022-10-06T13:18:07.736Z,50.32
2022-10-06T13:20:41.867Z,50.30
2022-10-06T13:23:29.050Z,50.37
2022-10-06T13:26:04.265Z,51.04
2022-10-06T13:28:52.392Z,51.23
2022-10-06T13:31:23.807Z,51.45
2022-10-06T13:34:11.758Z,51.82
2022-10-06T13:36:43.922Z,51.36
2022-10-06T13:39:18.977Z,51.75
2022-10-06T13:41:56.865Z,51.31
2022-10-06T13:44:56.979Z,51.88
2022-10-06T13:47:25.624Z,52.12
2022-10-06T13:49:57.342Z,52.44
2022-10-06T13:52:34.570Z,52.87
2022-10-06T13:55:02.991Z,52.95
2022-10-06T13:58:03.375Z,52.88
2022-10-06T14:00:57.360Z,53.10
2022-10-06T14:06:17.778Z,53.42
2022-10-06T14:08:57.920Z,53.34
2022-10-06T14:11:29.019Z,52.42
2022-10-06T14:14:05.240Z,52.15
2022-10-06T14:16:32.219Z,52.40
2022-10-06T14:19:03.598Z,52.51
2022-10-06T14:21:38.991Z,52.84
2022-10-06T14:24:26.973Z,53.02
2022-10-06T14:26:55.071Z,53.15
2022-10-06T14:29:22.738Z,53.36
2022-10-06T14:31:49.411Z,53.44
2022-10-06T14:34:19.146Z,53.71
2022-10-06T14:36:48.530Z,53.77
2022-10-06T14:39:15.960Z,53.95
2022-10-06T14:41:43.267Z,54.49
2022-10-06T14:44:12.241Z,54.25
2022-10-06T14:46:41.340Z,54.38
2022-10-06T14:49:10.362Z,54.66
2022-10-06T14:51:38.524Z,55.15
2022-10-06T14:54:07.540Z,55.46
2022-10-06T14:56:37.395Z,56.00
2022-10-06T14:59:06.517Z,56.39
2022-10-06T15:01:35.273Z,57.13
2022-10-06T15:04:11.469Z,57.88
2022-10-06T15:06:57.398Z,58.81
2022-10-06T15:09:24.244Z,59.53
2022-10-06T15:11:52.352Z,60.61
2022-10-06T15:14:19.398Z,60.84
2022-10-06T15:16:46.450Z,61.17
2022-10-06T15:19:13.528Z,61.37
2022-10-06T15:21:45.185Z,62.23
2022-10-06T15:24:15.137Z,64.35
2022-10-06T15:27:01.899Z,55.83
2022-10-06T15:29:32.331Z,54.13
2022-10-06T15:32:05.213Z,56.31
2022-10-06T15:34:34.440Z,58.51
2022-10-06T15:37:01.407Z,59.82
2022-10-06T15:39:30.372Z,60.39
2022-10-06T15:42:00.977Z,61.59
2022-10-06T15:44:32.201Z,63.54
2022-10-06T15:47:06.039Z,55.97
2022-10-06T15:49:40.616Z,54.13
2022-10-06T15:52:14.678Z,56.53
2022-10-06T15:54:42.280Z,58.76
2022-10-06T15:57:15.029Z,60.77
2022-10-06T15:59:51.729Z,62.08
2022-10-06T16:02:26.799Z,65.33
2022-10-06T16:04:56.416Z,56.20
2022-10-06T16:07:23.355Z,55.92
2022-10-06T16:09:52.036Z,58.01
2022-10-06T16:12:29.683Z,60.34
2022-10-06T16:15:01.017Z,63.03
2022-10-06T16:17:30.414Z,61.28
2022-10-06T16:19:57.365Z,54.49
2022-10-06T16:22:29.763Z,56.20
2022-10-06T16:25:00.124Z,59.53
2022-10-06T16:27:31.262Z,62.75
2022-10-06T16:30:05.160Z,57.93
2022-10-06T16:32:36.749Z,56.63
2022-10-06T16:35:17.429Z,60.28
2022-10-06T16:37:52.620Z,63.28
2022-10-06T16:40:19.400Z,57.78
2022-10-06T16:43:02.461Z,57.05
2022-10-06T16:45:36.968Z,60.96
2022-10-06T16:48:03.634Z,63.13
2022-10-06T16:50:30.283Z,58.04
2022-10-06T16:52:57.155Z,56.56
2022-10-06T16:55:40.231Z,59.89
2022-10-06T16:58:12.727Z,63.42
2022-10-06T17:00:39.772Z,61.48
2022-10-06T17:03:11.959Z,56.53
2022-10-06T17:06:10.153Z,58.07
2022-10-06T17:08:46.069Z,60.92
2022-10-06T17:11:24.155Z,67.43
2022-10-06T17:13:59.906Z,63.39
2022-10-06T17:16:36.955Z,56.46
2022-10-06T17:19:10.923Z,55.63
2022-10-06T17:21:47.126Z,56.45
2022-10-06T17:24:28.220Z,58.90
2022-10-06T17:27:04.337Z,65.76
2022-10-06T17:29:36.085Z,61.97
2022-10-06T17:32:02.849Z,54.52
2022-10-06T17:34:45.752Z,54.48
2022-10-06T17:37:23.155Z,56.57
2022-10-06T17:39:57.069Z,60.02
2022-10-06T17:42:23.786Z,61.45
2022-10-06T17:44:58.442Z,67.42
2022-10-06T17:47:33.701Z,62.02
2022-10-06T17:50:07.795Z,54.25
2022-10-06T17:52:35.739Z,54.43
2022-10-06T17:55:17.179Z,56.53
2022-10-06T17:57:46.394Z,57.38
2022-10-06T18:00:22.020Z,59.59
2022-10-06T18:02:56.093Z,65.16
2022-10-06T18:05:33.227Z,60.70
2022-10-06T18:08:05.335Z,53.77
2022-10-06T18:10:57.776Z,54.39
2022-10-06T18:13:35.502Z,56.22
2022-10-06T18:16:18.951Z,58.68
2022-10-06T18:18:54.198Z,60.47
2022-10-06T18:21:35.435Z,63.72
2022-10-06T18:24:18.434Z,63.51
2022-10-06T18:27:01.784Z,55.22
2022-10-06T18:29:39.946Z,54.35
2022-10-06T18:34:06.913Z,55.90
2022-10-06T18:38:02.401Z,59.19
2022-10-06T18:40:37.953Z,62.36
2022-10-06T18:43:18.031Z,64.55
2022-10-06T18:46:09.632Z,55.47
2022-10-06T18:49:00.308Z,55.12
2022-10-06T18:51:40.398Z,56.71
2022-10-06T18:54:10.990Z,57.11
2022-10-06T18:56:41.738Z,61.82
2022-10-06T18:59:15.349Z,66.51
2022-10-06T19:01:56.672Z,66.04
2022-10-06T19:04:26.281Z,62.41
2022-10-06T19:07:01.308Z,55.12
2022-10-06T19:09:28.459Z,53.92
2022-10-06T19:12:06.377Z,55.70
2022-10-06T19:14:47.290Z,58.06
2022-10-06T19:17:24.769Z,60.45
2022-10-06T19:19:57.414Z,67.69
2022-10-06T19:22:37.017Z,62.10
2022-10-06T19:25:12.219Z,54.02
2022-10-06T19:27:49.555Z,54.79
2022-10-06T19:30:26.599Z,56.04
2022-10-06T19:32:55.844Z,59.21
2022-10-06T19:35:22.495Z,60.85
2022-10-06T19:37:52.288Z,60.68
2022-10-06T19:40:27.685Z,65.78
2022-10-06T19:43:04.611Z,62.05
2022-10-06T19:45:38.685Z,53.53
2022-10-06T19:48:20.898Z,54.08
2022-10-06T19:50:52.347Z,57.42
2022-10-06T19:53:27.741Z,59.29
2022-10-06T19:56:04.323Z,61.63
2022-10-06T19:58:45.335Z,65.59
2022-10-06T20:01:24.950Z,59.38
2022-10-06T20:04:02.120Z,52.30
2022-10-06T20:06:32.252Z,54.38
2022-10-06T20:09:11.021Z,57.82
2022-10-06T20:11:48.028Z,59.74
2022-10-06T20:14:21.069Z,61.64
2022-10-06T20:17:00.853Z,67.54
2022-10-06T20:19:47.230Z,60.71
2022-10-06T20:22:33.298Z,53.52
2022-10-06T20:25:13.492Z,54.61
2022-10-06T20:27:52.622Z,57.41
2022-10-06T20:30:38.449Z,60.81
2022-10-06T20:33:21.165Z,67.62
2022-10-06T20:36:04.875Z,59.75
2022-10-06T20:39:01.025Z,54.96
2022-10-06T20:41:40.617Z,58.79
2022-10-06T20:44:14.924Z,62.97
2022-10-06T20:46:52.935Z,62.24
2022-10-06T20:49:29.190Z,55.18
2022-10-06T20:52:02.928Z,55.30
2022-10-06T20:54:42.982Z,57.99
2022-10-06T20:57:13.122Z,58.82
2022-10-06T20:59:55.106Z,61.60
2022-10-06T21:02:32.171Z,63.05
2022-10-06T21:05:08.926Z,59.63
2022-10-06T21:07:40.457Z,53.16
2022-10-06T21:10:23.046Z,54.67
2022-10-06T21:13:05.577Z,56.71
2022-10-06T21:15:53.312Z,58.15
2022-10-06T21:18:39.996Z,58.24
2022-10-06T21:21:24.387Z,59.50
2022-10-06T21:24:06.893Z,69.68
2022-10-06T21:26:52.758Z,64.71
2022-10-06T21:29:33.848Z,55.33
2022-10-06T21:32:27.848Z,54.01
2022-10-06T21:35:15.874Z,56.27
2022-10-06T21:37:56.614Z,59.08
2022-10-06T21:40:41.872Z,60.61
2022-10-06T21:43:25.609Z,69.21
2022-10-06T21:46:27.918Z,62.87
2022-10-06T21:49:10.422Z,54.06
2022-10-06T21:51:58.593Z,54.74
2022-10-06T21:54:35.634Z,57.06
2022-10-06T21:57:45.940Z,58.36
2022-10-06T22:00:43.515Z,59.63
2022-10-06T22:03:19.676Z,60.76
2022-10-06T22:05:58.454Z,69.70
2022-10-06T22:08:42.060Z,64.74
2022-10-06T22:11:31.111Z,56.21
2022-10-06T22:14:14.871Z,55.33
2022-10-06T22:17:02.509Z,57.85
2022-10-06T22:19:45.848Z,58.16
2022-10-06T22:22:35.035Z,61.05
2022-10-06T22:25:32.714Z,69.89
2022-10-06T22:28:21.412Z,63.18
2022-10-06T22:31:19.018Z,55.15
2022-10-06T22:34:16.645Z,55.36
2022-10-06T22:36:59.763Z,58.30
2022-10-06T22:39:42.326Z,59.56
2022-10-06T22:42:36.742Z,67.06
2022-10-06T22:45:26.814Z,63.03
2022-10-06T22:48:30.102Z,55.11
2022-10-06T22:51:30.805Z,56.14
2022-10-06T22:54:42.754Z,60.20
2022-10-06T22:57:24.920Z,67.81
2022-10-06T23:00:13.168Z,63.40
2022-10-06T23:02:57.119Z,55.22
2022-10-06T23:05:56.925Z,55.56
2022-10-06T23:09:06.214Z,58.64
2022-10-06T23:12:03.339Z,67.41
2022-10-06T23:15:13.989Z,61.27
2022-10-06T23:18:02.391Z,53.91
2022-10-06T23:21:22.233Z,55.13
2022-10-06T23:24:19.482Z,56.88
2022-10-06T23:27:24.059Z,58.69
2022-10-06T23:30:29.650Z,70.22
2022-10-06T23:33:22.820Z,62.96
2022-10-06T23:36:26.010Z,55.11
2022-10-06T23:39:39.840Z,56.78
2022-10-06T23:42:28.468Z,60.20
2022-10-06T23:45:23.867Z,69.69
2022-10-06T23:48:41.877Z,64.59
2022-10-06T23:51:21.975Z,56.95
2022-10-06T23:54:20.774Z,56.93
2022-10-06T23:57:09.384Z,60.11
2022-10-06T23:59:58.735Z,68.31
